createdAt,value
2023-06-24T00:01:17.729Z,99445.88
2023-06-24T00:03:48.097Z,99446.91
2023-06-24T00:06:19.706Z,99451.72
2023-06-24T00:08:47.864Z,99454.41
2023-06-24T00:11:15.436Z,99455.50
2023-06-24T00:13:43.458Z,99456.31
2023-06-24T00:16:13.910Z,99460.88
2023-06-24T00:18:43.903Z,99459.44
2023-06-24T00:21:11.268Z,99452.91
2023-06-24T00:23:38.540Z,99446.78
2023-06-24T00:26:05.816Z,99460.88
2023-06-24T00:28:33.043Z,99456.56
2023-06-24T00:31:00.442Z,99457.59
2023-06-24T00:33:27.845Z,99456.78
2023-06-24T00:35:55.827Z,99461.38
2023-06-24T00:38:23.205Z,99459.72
2023-06-24T00:40:51.539Z,99466.19
2023-06-24T00:43:18.912Z,99464.28
2023-06-24T00:45:50.052Z,99461.84
2023-06-24T00:48:17.522Z,99473.47
2023-06-24T00:50:46.616Z,99460.19
2023-06-24T00:53:14.148Z,99462.06
2023-06-24T00:55:41.671Z,99457.47
2023-06-24T00:58:11.349Z,99467.47
2023-06-24T01:00:39.169Z,99462.28
2023-06-24T01:03:06.967Z,99474.75
2023-06-24T01:05:37.248Z,99470.38
2023-06-24T01:08:05.047Z,99473.09
2023-06-24T01:10:34.530Z,99464.16
2023-06-24T01:13:04.319Z,99460.66
2023-06-24T01:15:34.729Z,99470.66
2023-06-24T01:18:20.803Z,99459.00
2023-06-24T01:21:06.703Z,99459.94
2023-06-24T01:23:55.247Z,99456.19
2023-06-24T01:26:44.538Z,99453.25
2023-06-24T01:29:55.739Z,99457.47
2023-06-24T01:32:46.053Z,99446.22
2023-06-24T01:35:21.930Z,99441.63
2023-06-24T01:37:56.035Z,99451.38
2023-06-24T01:40:26.545Z,99439.53
2023-06-24T01:42:59.488Z,99430.03
2023-06-24T01:45:29.665Z,99437.88
2023-06-24T01:48:05.591Z,99430.84
2023-06-24T01:50:38.561Z,99441.63
2023-06-24T01:53:08.417Z,99439.97
2023-06-24T01:55:37.825Z,99431.88
2023-06-24T01:58:10.320Z,99438.13
2023-06-24T02:00:40.873Z,99436.72
2023-06-24T02:03:10.042Z,99432.13
2023-06-24T02:05:40.893Z,99432.94
2023-06-24T02:08:14.995Z,99430.25
2023-06-24T02:10:43.612Z,99435.03
2023-06-24T02:13:12.656Z,99426.94
2023-06-24T02:15:41.395Z,99428.03
2023-06-24T02:18:14.052Z,99431.31
2023-06-24T02:20:45.156Z,99439.84
2023-06-24T02:23:13.601Z,99427.16
2023-06-24T02:25:43.560Z,99429.06
2023-06-24T02:28:13.677Z,99422.84
2023-06-24T02:30:42.501Z,99422.03
2023-06-24T02:33:10.297Z,99416.84
2023-06-24T02:35:37.815Z,99423.06
2023-06-24T02:38:05.157Z,99433.03
2023-06-24T02:40:33.708Z,99426.84
2023-06-24T02:43:01.124Z,99426.84
2023-06-24T02:45:29.383Z,99410.63
2023-06-24T02:47:57.933Z,99416.03
2023-06-24T02:50:28.173Z,99424.13
2023-06-24T02:52:56.536Z,99426.00
2023-06-24T02:55:35.341Z,99435.41
2023-06-24T02:58:09.064Z,99433.53
2023-06-24T03:00:38.028Z,99437.03
2023-06-24T03:03:13.749Z,99434.34
2023-06-24T03:05:54.634Z,99421.91
2023-06-24T03:08:22.882Z,99431.88
2023-06-24T03:10:56.109Z,99434.34
2023-06-24T03:13:25.279Z,99422.94
2023-06-24T03:15:59.092Z,99435.88
2023-06-24T03:18:30.701Z,99437.88
2023-06-24T03:21:00.885Z,99435.94
2023-06-24T03:23:31.504Z,99440.25
2023-06-24T03:26:00.067Z,99442.56
2023-06-24T03:28:32.748Z,99449.47
2023-06-24T03:31:09.625Z,99451.69
2023-06-24T03:33:38.177Z,99460.25
2023-06-24T03:36:09.145Z,99471.72
2023-06-24T03:38:39.456Z,99474.28
2023-06-24T03:41:07.699Z,99472.88
2023-06-24T03:43:37.154Z,99477.88
2023-06-24T03:46:04.497Z,99479.41
2023-06-24T03:48:34.261Z,99485.84
2023-06-24T03:51:02.248Z,99485.22
2023-06-24T03:53:36.591Z,99491.38
2023-06-24T03:56:06.233Z,99488.06
2023-06-24T03:58:33.485Z,99488.81
2023-06-24T04:01:03.430Z,99482.72
2023-06-24T04:03:33.685Z,99487.38
2023-06-24T04:06:04.052Z,99493.38
2023-06-24T04:08:33.741Z,99491.28
2023-06-24T04:11:04.433Z,99492.28
2023-06-24T04:13:33.229Z,99493.91
2023-06-24T04:16:03.014Z,99497.69
2023-06-24T04:18:32.750Z,99501.34
2023-06-24T04:21:00.052Z,99500.50
2023-06-24T04:23:32.050Z,99499.22
2023-06-24T04:26:01.992Z,99508.78
2023-06-24T04:28:29.601Z,99506.63
2023-06-24T04:30:59.504Z,99507.00
2023-06-24T04:33:29.688Z,99508.16
2023-06-24T04:36:00.273Z,99512.31
2023-06-24T04:38:27.708Z,99510.19
2023-06-24T04:40:55.462Z,99512.44
2023-06-24T04:43:28.297Z,99521.25
2023-06-24T04:45:58.233Z,99525.25
2023-06-24T04:48:25.754Z,99517.84
2023-06-24T04:50:54.676Z,99522.09
2023-06-24T04:53:22.601Z,99505.91
2023-06-24T04:55:50.048Z,99508.13
2023-06-24T04:58:17.259Z,99512.72
2023-06-24T05:00:44.669Z,99506.50
2023-06-24T05:03:11.968Z,99505.22
2023-06-24T05:05:40.403Z,99507.69
2023-06-24T05:08:07.843Z,99511.53
2023-06-24T05:10:37.506Z,99514.94
2023-06-24T05:13:05.025Z,99520.72
2023-06-24T05:15:32.496Z,99525.88
2023-06-24T05:17:59.970Z,99526.94
2023-06-24T05:20:27.521Z,99524.00
2023-06-24T05:22:55.453Z,99525.97
2023-06-24T05:25:23.532Z,99518.72
2023-06-24T05:27:53.168Z,99517.41
2023-06-24T05:30:23.147Z,99516.72
2023-06-24T05:32:51.055Z,99519.63
2023-06-24T05:35:18.522Z,99526.94
2023-06-24T05:37:48.132Z,99521.84
2023-06-24T05:40:18.055Z,99524.56
2023-06-24T05:42:48.400Z,99516.94
2023-06-24T05:45:15.868Z,99524.44
2023-06-24T05:47:43.137Z,99524.72
2023-06-24T05:50:10.901Z,99524.44
2023-06-24T05:52:43.105Z,99519.63
2023-06-24T05:55:14.878Z,99525.53
2023-06-24T05:57:42.439Z,99522.22
2023-06-24T06:00:10.262Z,99525.53
2023-06-24T06:02:45.800Z,99527.63
2023-06-24T06:05:15.670Z,99523.88
2023-06-24T06:07:44.764Z,99515.75
2023-06-24T06:10:12.302Z,99525.03
2023-06-24T06:12:41.802Z,99514.81
2023-06-24T06:15:09.922Z,99521.16
2023-06-24T06:17:37.136Z,99513.25
2023-06-24T06:20:05.589Z,99521.50
2023-06-24T06:22:38.775Z,99516.66
2023-06-24T06:25:09.380Z,99515.16
2023-06-24T06:27:37.049Z,99513.28
2023-06-24T06:30:05.436Z,99502.22
2023-06-24T06:32:37.850Z,99509.84
2023-06-24T06:35:06.068Z,99515.97
2023-06-24T06:37:33.383Z,99505.75
2023-06-24T06:40:01.135Z,99504.44
2023-06-24T06:42:32.415Z,99512.56
2023-06-24T06:44:59.594Z,99505.03
2023-06-24T06:47:29.561Z,99506.66
2023-06-24T06:49:56.997Z,99507.50
2023-06-24T06:52:24.425Z,99503.72
2023-06-24T06:54:51.797Z,99499.13
2023-06-24T06:57:19.547Z,99499.72
2023-06-24T06:59:51.974Z,99500.31
2023-06-24T07:02:19.848Z,99499.72
2023-06-24T07:04:48.947Z,99498.69
2023-06-24T07:07:16.218Z,99495.50
2023-06-24T07:09:43.570Z,99495.22
2023-06-24T07:12:14.436Z,99504.28
2023-06-24T07:14:41.564Z,99507.09
2023-06-24T07:17:09.230Z,99500.69
2023-06-24T07:19:36.507Z,99506.78
2023-06-24T07:22:04.075Z,99510.19
2023-06-24T07:24:31.311Z,99505.44
2023-06-24T07:27:00.962Z,99500.13
2023-06-24T07:29:36.004Z,99508.94
2023-06-24T07:32:03.538Z,99501.19
2023-06-24T07:34:44.138Z,99494.09
2023-06-24T07:37:23.109Z,99499.66
2023-06-24T07:39:51.469Z,99493.31
2023-06-24T07:42:20.203Z,99493.06
2023-06-24T07:44:48.765Z,99494.69
2023-06-24T07:47:19.911Z,99492.59
2023-06-24T07:49:47.473Z,99493.88
2023-06-24T07:52:15.353Z,99493.06
2023-06-24T07:54:43.430Z,99495.28
2023-06-24T07:57:10.601Z,99494.25
2023-06-24T07:59:38.104Z,99493.78
2023-06-24T08:02:06.259Z,99490.81
2023-06-24T08:04:33.531Z,99486.25
2023-06-24T08:07:04.049Z,99483.84
2023-06-24T08:09:31.902Z,99489.50
2023-06-24T08:11:59.213Z,99493.59
2023-06-24T08:14:33.786Z,99480.66
2023-06-24T08:17:01.152Z,99477.34
2023-06-24T08:19:28.609Z,99477.56
2023-06-24T08:21:55.914Z,99478.75
2023-06-24T08:24:27.938Z,99474.81
2023-06-24T08:26:55.364Z,99474.34
2023-06-24T08:29:22.538Z,99472.22
2023-06-24T08:31:52.544Z,99471.66
2023-06-24T08:34:19.716Z,99462.38
2023-06-24T08:36:47.191Z,99464.56
2023-06-24T08:39:14.906Z,99477.06
2023-06-24T08:41:44.850Z,99472.97
2023-06-24T08:44:12.505Z,99463.44
2023-06-24T08:46:40.577Z,99468.84
2023-06-24T08:49:27.891Z,99472.63
2023-06-24T08:52:00.126Z,99467.19
2023-06-24T08:54:29.206Z,99469.31
2023-06-24T08:56:58.967Z,99479.34
2023-06-24T08:59:26.270Z,99470.41
2023-06-24T09:01:58.329Z,99469.31
2023-06-24T09:04:25.717Z,99469.81
2023-06-24T09:06:52.949Z,99468.19
2023-06-24T09:09:24.033Z,99467.13
2023-06-24T09:12:03.084Z,99464.91
2023-06-24T09:14:31.140Z,99464.09
2023-06-24T09:17:02.636Z,99463.00
2023-06-24T09:19:30.479Z,99457.84
2023-06-24T09:22:06.201Z,99460.31
2023-06-24T09:24:37.515Z,99460.53
2023-06-24T09:27:09.512Z,99449.81
2023-06-24T09:29:37.455Z,99446.53
2023-06-24T09:32:08.020Z,99444.63
2023-06-24T09:34:36.819Z,99440.28
2023-06-24T09:37:04.312Z,99435.13
2023-06-24T09:39:38.608Z,99435.69
2023-06-24T09:42:07.793Z,99428.63
2023-06-24T09:44:35.258Z,99436.75
2023-06-24T09:47:05.274Z,99434.03
2023-06-24T09:49:32.483Z,99429.13
2023-06-24T09:52:02.434Z,99427.50
2023-06-24T09:54:33.868Z,99422.06
2023-06-24T09:57:07.450Z,99431.59
2023-06-24T09:59:35.404Z,99425.84
2023-06-24T10:02:04.443Z,99422.06
2023-06-24T10:04:33.022Z,99424.22
2023-06-24T10:07:01.083Z,99420.34
2023-06-24T10:09:29.872Z,99417.63
2023-06-24T10:12:01.436Z,99418.72
2023-06-24T10:14:28.781Z,99420.34
2023-06-24T10:17:04.320Z,99405.25
2023-06-24T10:19:42.930Z,99406.31
2023-06-24T10:22:12.965Z,99401.53
2023-06-24T10:24:43.570Z,99399.25
2023-06-24T10:27:24.256Z,99399.41
2023-06-24T10:29:54.328Z,99398.06
2023-06-24T10:32:24.015Z,99393.81
2023-06-24T10:34:58.410Z,99394.03
2023-06-24T10:37:31.284Z,99393.88
2023-06-24T10:40:02.374Z,99402.31
2023-06-24T10:42:45.040Z,99393.13
2023-06-24T10:45:20.021Z,99382.28
2023-06-24T10:47:53.983Z,99381.25
2023-06-24T10:50:23.446Z,99378.66
2023-06-24T10:52:56.674Z,99377.28
2023-06-24T10:55:27.413Z,99368.38
2023-06-24T10:57:54.658Z,99367.56
2023-06-24T11:00:25.141Z,99360.50
2023-06-24T11:02:52.918Z,99363.16
2023-06-24T11:05:20.176Z,99351.66
2023-06-24T11:07:48.592Z,99355.94
2023-06-24T11:10:18.393Z,99346.34
2023-06-24T11:12:47.527Z,99348.41
2023-06-24T11:15:15.184Z,99348.28
2023-06-24T11:17:43.271Z,99343.63
2023-06-24T11:20:15.446Z,99337.03
2023-06-24T11:22:44.610Z,99336.38
2023-06-24T11:25:24.845Z,99331.72
2023-06-24T11:27:54.756Z,99330.81
2023-06-24T11:30:24.979Z,99334.03
2023-06-24T11:32:54.906Z,99328.25
2023-06-24T11:35:22.283Z,99330.88
2023-06-24T11:37:53.319Z,99325.16
2023-06-24T11:40:21.341Z,99321.28
2023-06-24T11:42:51.854Z,99313.44
2023-06-24T11:45:23.162Z,99308.25
2023-06-24T11:47:53.904Z,99305.78
2023-06-24T11:50:27.892Z,99312.50
2023-06-24T11:52:55.166Z,99307.00
2023-06-24T11:55:25.147Z,99302.91
2023-06-24T11:57:55.265Z,99291.78
2023-06-24T12:00:42.413Z,99293.78
2023-06-24T12:03:13.450Z,99298.13
2023-06-24T12:05:46.833Z,99291.91
2023-06-24T12:08:18.131Z,99300.66
2023-06-24T12:10:46.533Z,99288.53
2023-06-24T12:13:15.940Z,99286.31
2023-06-24T12:15:43.460Z,99283.84
2023-06-24T12:18:11.055Z,99276.81
2023-06-24T12:20:39.398Z,99271.63
2023-06-24T12:23:09.193Z,99275.63
2023-06-24T12:25:36.806Z,99271.31
2023-06-24T12:28:04.571Z,99266.94
2023-06-24T12:30:31.755Z,99262.03
2023-06-24T12:32:59.145Z,99258.53
2023-06-24T12:35:27.040Z,99264.16
2023-06-24T12:37:54.340Z,99261.72
2023-06-24T12:40:21.717Z,99255.72
2023-06-24T12:42:49.452Z,99254.88
2023-06-24T12:45:16.863Z,99255.16
2023-06-24T12:47:44.429Z,99243.53
2023-06-24T12:50:12.035Z,99245.63
2023-06-24T12:52:40.230Z,99247.25
2023-06-24T12:55:08.830Z,99235.06
2023-06-24T12:57:39.603Z,99239.88
2023-06-24T13:00:21.874Z,99238.03
2023-06-24T13:02:54.783Z,99236.03
2023-06-24T13:05:23.076Z,99228.75
2023-06-24T13:07:50.277Z,99235.19
2023-06-24T13:10:17.654Z,99221.94
2023-06-24T13:12:45.067Z,99220.06
2023-06-24T13:15:12.748Z,99219.47
2023-06-24T13:17:40.151Z,99224.06
2023-06-24T13:20:10.922Z,99215.16
2023-06-24T13:22:38.353Z,99212.69
2023-06-24T13:25:06.140Z,99213.75
2023-06-24T13:27:33.725Z,99206.47
2023-06-24T13:30:05.038Z,99196.72
2023-06-24T13:32:37.297Z,99197.78
2023-06-24T13:35:08.250Z,99206.13
2023-06-24T13:37:35.473Z,99209.06
2023-06-24T13:40:03.046Z,99208.00
2023-06-24T13:42:33.198Z,99205.28
2023-06-24T13:45:02.759Z,99198.25
2023-06-24T13:47:30.173Z,99193.44
2023-06-24T13:50:00.603Z,99196.16
2023-06-24T13:52:27.997Z,99196.97
2023-06-24T13:54:55.651Z,99204.25
2023-06-24T13:57:25.554Z,99204.00
2023-06-24T13:59:52.690Z,99190.75
2023-06-24T14:02:20.211Z,99190.75
2023-06-24T14:04:50.350Z,99195.31
2023-06-24T14:07:17.537Z,99181.78
2023-06-24T14:09:44.913Z,99179.94
2023-06-24T14:12:12.500Z,99171.00
2023-06-24T14:14:39.759Z,99185.34
2023-06-24T14:17:11.022Z,99169.13
2023-06-24T14:19:41.886Z,99169.34
2023-06-24T14:22:09.491Z,99159.63
2023-06-24T14:24:38.767Z,99170.44
2023-06-24T14:27:07.789Z,99170.44
2023-06-24T14:29:35.132Z,99165.25
2023-06-24T14:32:04.488Z,99161.97
2023-06-24T14:34:34.200Z,99172.78
2023-06-24T14:37:06.152Z,99158.47
2023-06-24T14:39:33.390Z,99171.16
2023-06-24T14:42:00.650Z,99155.19
2023-06-24T14:44:28.053Z,99149.78
2023-06-24T14:46:57.708Z,99141.91
2023-06-24T14:49:25.190Z,99150.84
2023-06-24T14:51:53.240Z,99144.59
2023-06-24T14:54:23.188Z,99151.91
2023-06-24T14:56:50.581Z,99143.19
2023-06-24T14:59:17.866Z,99138.63
2023-06-24T15:01:45.065Z,99138.84
2023-06-24T15:04:12.642Z,99139.66
2023-06-24T15:06:42.778Z,99136.78
2023-06-24T15:09:09.986Z,99128.28
2023-06-24T15:11:37.540Z,99132.63
2023-06-24T15:14:04.908Z,99128.28
2023-06-24T15:16:32.495Z,99130.53
2023-06-24T15:19:02.336Z,99131.63
2023-06-24T15:21:37.121Z,99116.31
2023-06-24T15:24:05.404Z,99112.06
2023-06-24T15:26:33.700Z,99110.00
2023-06-24T15:29:03.507Z,99103.38
2023-06-24T15:31:30.952Z,99105.69
2023-06-24T15:33:59.210Z,99107.69
2023-06-24T15:36:27.792Z,99101.88
2023-06-24T15:38:55.852Z,99106.88
2023-06-24T15:41:23.971Z,99103.19
2023-06-24T15:43:51.386Z,99108.09
2023-06-24T15:46:21.130Z,99111.69
2023-06-24T15:48:48.513Z,99111.75
2023-06-24T15:51:16.129Z,99097.47
2023-06-24T15:53:43.309Z,99099.19
2023-06-24T15:56:10.528Z,99105.47
2023-06-24T15:58:37.947Z,99098.50
2023-06-24T16:01:05.404Z,99096.91
2023-06-24T16:03:32.803Z,99094.91
2023-06-24T16:06:02.713Z,99105.03
2023-06-24T16:08:56.934Z,99088.16
2023-06-24T16:11:53.956Z,99093.09
2023-06-24T16:14:46.929Z,99089.88
2023-06-24T16:17:21.577Z,99084.50
2023-06-24T16:19:48.735Z,99087.03
2023-06-24T16:22:16.156Z,99085.53
2023-06-24T16:24:48.278Z,99085.53
2023-06-24T16:27:18.979Z,99082.28
2023-06-24T16:29:46.557Z,99083.59
2023-06-24T16:32:13.896Z,99080.56
2023-06-24T16:34:41.244Z,99084.00
2023-06-24T16:37:10.815Z,99075.81
2023-06-24T16:39:38.070Z,99068.72
2023-06-24T16:42:05.705Z,99066.50
2023-06-24T16:44:37.368Z,99065.34
2023-06-24T16:47:07.192Z,99076.31
2023-06-24T16:49:34.338Z,99065.94
2023-06-24T16:52:02.776Z,99062.66
2023-06-24T16:54:29.940Z,99060.41
2023-06-24T16:56:57.242Z,99061.94
2023-06-24T16:59:24.711Z,99066.19
2023-06-24T17:01:54.190Z,99063.19
2023-06-24T17:04:23.794Z,99062.84
2023-06-24T17:06:51.067Z,99061.22
2023-06-24T17:09:18.450Z,99052.75
2023-06-24T17:11:48.117Z,99056.78
2023-06-24T17:14:15.483Z,99063.50
2023-06-24T17:16:42.998Z,99053.19
2023-06-24T17:19:12.427Z,99055.31
2023-06-24T17:21:44.867Z,99050.72
2023-06-24T17:24:12.229Z,99052.53
2023-06-24T17:26:39.454Z,99049.47
2023-06-24T17:29:07.426Z,99048.91
2023-06-24T17:31:34.575Z,99045.63
2023-06-24T17:34:01.813Z,99050.44
2023-06-24T17:36:29.310Z,99047.75
2023-06-24T17:38:56.559Z,99045.53
2023-06-24T17:41:24.119Z,99051.19
2023-06-24T17:43:54.470Z,99049.56
2023-06-24T17:46:24.118Z,99052.50
2023-06-24T17:48:55.858Z,99047.59
2023-06-24T17:51:23.142Z,99050.78
2023-06-24T17:53:50.461Z,99051.81
2023-06-24T17:56:17.626Z,99046.91
2023-06-24T17:58:44.961Z,99053.41
2023-06-24T18:01:16.433Z,99045.75
2023-06-24T18:03:44.076Z,99047.91
2023-06-24T18:06:14.025Z,99046.25
2023-06-24T18:08:41.189Z,99045.94
2023-06-24T18:11:08.571Z,99045.94
2023-06-24T18:13:35.952Z,99048.88
2023-06-24T18:16:05.518Z,99051.78
2023-06-24T18:18:34.041Z,99047.69
2023-06-24T18:21:01.285Z,99051.47
2023-06-24T18:23:28.539Z,99049.84
2023-06-24T18:26:00.525Z,99049.84
2023-06-24T18:28:27.705Z,99046.22
2023-06-24T18:30:55.059Z,99043.78
2023-06-24T18:33:22.219Z,99048.34
2023-06-24T18:35:49.440Z,99042.13
2023-06-24T18:38:16.967Z,99037.81
2023-06-24T18:40:44.225Z,99032.63
2023-06-24T18:43:11.539Z,99034.75
2023-06-24T18:45:38.797Z,99037.72
2023-06-24T18:48:06.217Z,99041.44
2023-06-24T18:50:35.854Z,99032.78
2023-06-24T18:53:03.429Z,99035.47
2023-06-24T18:55:30.765Z,99033.84
2023-06-24T18:57:57.898Z,99034.34
2023-06-24T19:00:45.244Z,99033.25
2023-06-24T19:03:34.796Z,99033.75
2023-06-24T19:06:07.766Z,99042.31
2023-06-24T19:08:35.135Z,99036.69
2023-06-24T19:11:04.533Z,99038.56
2023-06-24T19:13:31.782Z,99035.06
2023-06-24T19:15:59.226Z,99034.22
2023-06-24T19:18:28.778Z,99039.59
2023-06-24T19:20:56.169Z,99037.13
2023-06-24T19:23:25.875Z,99037.13
2023-06-24T19:25:53.308Z,99033.03
2023-06-24T19:28:20.494Z,99030.56
2023-06-24T19:30:48.043Z,99038.94
2023-06-24T19:33:17.835Z,99030.84
2023-06-24T19:35:45.023Z,99035.66
2023-06-24T19:38:17.149Z,99039.38
2023-06-24T19:40:44.364Z,99043.38
2023-06-24T19:43:11.611Z,99043.38
2023-06-24T19:45:38.998Z,99042.56
2023-06-24T19:48:06.455Z,99047.16
2023-06-24T19:50:34.214Z,99048.22
2023-06-24T19:53:01.780Z,99048.44
2023-06-24T19:55:29.019Z,99044.13
2023-06-24T19:57:56.484Z,99046.81
2023-06-24T20:00:25.853Z,99048.69
2023-06-24T20:03:02.404Z,99055.97
2023-06-24T20:05:30.824Z,99051.28
2023-06-24T20:07:58.143Z,99048.34
2023-06-24T20:10:25.313Z,99059.16
2023-06-24T20:12:54.444Z,99057.50
2023-06-24T20:15:21.869Z,99055.88
2023-06-24T20:17:49.085Z,99060.66
2023-06-24T20:20:19.054Z,99053.38
2023-06-24T20:22:46.242Z,99048.47
2023-06-24T20:25:13.483Z,99053.06
2023-06-24T20:27:40.829Z,99048.75
2023-06-24T20:30:10.984Z,99051.19
2023-06-24T20:32:40.692Z,99054.59
2023-06-24T20:35:08.411Z,99044.88
2023-06-24T20:37:38.008Z,99051.88
2023-06-24T20:40:08.244Z,99045.47
2023-06-24T20:42:38.546Z,99050.75
2023-06-24T20:45:06.479Z,99051.56
2023-06-24T20:47:33.707Z,99054.47
2023-06-24T20:50:01.273Z,99047.47
2023-06-24T20:52:28.439Z,99054.16
2023-06-24T20:54:58.323Z,99049.56
2023-06-24T20:57:25.687Z,99046.06
2023-06-24T20:59:52.839Z,99043.38
2023-06-24T21:02:20.173Z,99040.66
2023-06-24T21:04:47.565Z,99030.13
2023-06-24T21:07:14.849Z,99043.81
2023-06-24T21:09:42.152Z,99046.78
2023-06-24T21:12:11.908Z,99049.47
2023-06-24T21:14:39.190Z,99042.19
2023-06-24T21:17:06.635Z,99039.72
2023-06-24T21:19:35.503Z,99039.72
2023-06-24T21:22:03.195Z,99047.25
2023-06-24T21:24:32.701Z,99045.97
2023-06-24T21:27:00.060Z,99043.72
2023-06-24T21:29:29.674Z,99047.72
2023-06-24T21:31:57.092Z,99040.69
2023-06-24T21:34:24.260Z,99047.97
2023-06-24T21:36:52.872Z,99043.38
2023-06-24T21:39:20.216Z,99047.16
2023-06-24T21:41:47.585Z,99045.28
2023-06-24T21:44:15.303Z,99050.66
2023-06-24T21:46:45.306Z,99050.31
2023-06-24T21:49:13.059Z,99056.50
2023-06-24T21:51:41.112Z,99044.91
2023-06-24T21:54:10.752Z,99042.47
2023-06-24T21:56:38.910Z,99044.31
2023-06-24T21:59:06.340Z,99040.00
2023-06-24T22:01:33.736Z,99048.09
2023-06-24T22:04:00.973Z,99048.91
2023-06-24T22:06:28.652Z,99040.00
2023-06-24T22:08:55.848Z,99041.06
2023-06-24T22:11:23.281Z,99035.69
2023-06-24T22:13:53.087Z,99039.19
2023-06-24T22:16:20.254Z,99042.59
2023-06-24T22:18:47.728Z,99041.50
2023-06-24T22:21:19.688Z,99039.66
2023-06-24T22:23:47.127Z,99041.50
2023-06-24T22:26:16.760Z,99039.41
2023-06-24T22:28:47.113Z,99043.41
2023-06-24T22:31:14.833Z,99037.19
2023-06-24T22:33:42.163Z,99036.59
2023-06-24T22:36:09.868Z,99044.69
2023-06-24T22:38:41.744Z,99028.53
2023-06-24T22:41:11.546Z,99034.13
2023-06-24T22:43:41.315Z,99038.72
2023-06-24T22:46:08.523Z,99039.78
2023-06-24T22:48:35.980Z,99039.78
2023-06-24T22:51:03.523Z,99030.00
2023-06-24T22:53:30.721Z,99035.66
2023-06-24T22:55:58.003Z,99028.59
2023-06-24T22:58:25.346Z,99026.75
2023-06-24T23:00:52.984Z,99032.16
2023-06-24T23:03:20.668Z,99034.25
2023-06-24T23:05:48.135Z,99028.03
2023-06-24T23:08:15.705Z,99020.19
2023-06-24T23:10:43.103Z,99020.19
2023-06-24T23:13:13.479Z,99025.81
2023-06-24T23:15:41.219Z,99023.09
2023-06-24T23:18:13.617Z,99034.69
2023-06-24T23:20:42.089Z,99019.59
2023-06-24T23:23:13.279Z,99025.00
2023-06-24T23:25:43.128Z,99020.06
2023-06-24T23:28:20.979Z,99020.66
2023-06-24T23:30:48.739Z,99013.03
2023-06-24T23:33:20.101Z,99006.59
2023-06-24T23:35:51.737Z,99011.19
2023-06-24T23:38:20.442Z,99007.63
2023-06-24T23:40:51.006Z,99014.09
2023-06-24T23:43:20.485Z,99007.09
2023-06-24T23:45:52.145Z,98999.56
2023-06-24T23:48:21.753Z,99010.81
2023-06-24T23:50:49.244Z,99011.88
2023-06-24T23:53:18.918Z,99004.38
2023-06-24T23:55:48.844Z,99004.38
2023-06-24T23:58:16.050Z,98998.63
